sensor_id;sensor_type;location;lat;lon;timestamp;P1;durP1;ratioP1;P2;durP2;ratioP2
11747;SDS011;5931;48.832;9.072;2023-09-07T00:00:42;5.63;;;4.43;;
11747;SDS011;5931;48.832;9.072;2023-09-07T00:03:07;5.93;;;4.53;;
11747;SDS011;5931;48.832;9.072;2023-09-07T00:05:33;6.93;;;5.10;;
11747;SDS011;5931;48.832;9.072;2023-09-07T00:07:58;7.43;;;4.60;;
11747;SDS011;5931;48.832;9.072;2023-09-07T00:10:25;5.93;;;4.20;;
11747;SDS011;5931;48.832;9.072;2023-09-07T00:12:51;5.93;;;4.70;;
11747;SDS011;5931;48.832;9.072;2023-09-07T00:15:17;6.50;;;4.20;;
11747;SDS011;5931;48.832;9.072;2023-09-07T00:17:46;5.70;;;4.40;;
11747;SDS011;5931;48.832;9.072;2023-09-07T00:20:12;5.20;;;4.10;;
11747;SDS011;5931;48.832;9.072;2023-09-07T00:22:40;6.40;;;4.27;;
11747;SDS011;5931;48.832;9.072;2023-09-07T00:25:06;5.10;;;3.93;;
11747;SDS011;5931;48.832;9.072;2023-09-07T00:27:32;4.67;;;4.03;;
11747;SDS011;5931;48.832;9.072;2023-09-07T00:29:59;6.00;;;4.13;;
11747;SDS011;5931;48.832;9.072;2023-09-07T00:32:25;5.20;;;3.63;;
11747;SDS011;5931;48.832;9.072;2023-09-07T00:34:50;6.93;;;4.80;;
11747;SDS011;5931;48.832;9.072;2023-09-07T00:37:16;7.07;;;5.13;;
11747;SDS011;5931;48.832;9.072;2023-09-07T00:39:42;6.00;;;4.30;;
11747;SDS011;5931;48.832;9.072;2023-09-07T00:42:07;7.70;;;5.37;;
11747;SDS011;5931;48.832;9.072;2023-09-07T00:44:33;5.60;;;4.57;;
11747;SDS011;5931;48.832;9.072;2023-09-07T00:46:59;4.73;;;3.93;;
11747;SDS011;5931;48.832;9.072;2023-09-07T00:49:24;5.80;;;4.33;;
11747;SDS011;5931;48.832;9.072;2023-09-07T00:51:51;6.93;;;4.40;;
11747;SDS011;5931;48.832;9.072;2023-09-07T00:54:17;6.70;;;4.27;;
11747;SDS011;5931;48.832;9.072;2023-09-07T00:56:43;6.70;;;4.17;;
11747;SDS011;5931;48.832;9.072;2023-09-07T00:59:09;8.20;;;4.87;;
11747;SDS011;5931;48.832;9.072;2023-09-07T01:01:36;5.90;;;4.63;;
11747;SDS011;5931;48.832;9.072;2023-09-07T01:04:02;5.87;;;4.67;;
11747;SDS011;5931;48.832;9.072;2023-09-07T01:06:39;7.30;;;4.80;;
11747;SDS011;5931;48.832;9.072;2023-09-07T01:09:18;6.60;;;4.97;;
11747;SDS011;5931;48.832;9.072;2023-09-07T01:11:47;7.10;;;5.13;;
11747;SDS011;5931;48.832;9.072;2023-09-07T01:14:13;6.77;;;5.30;;
11747;SDS011;5931;48.832;9.072;2023-09-07T01:16:38;7.30;;;5.37;;
11747;SDS011;5931;48.832;9.072;2023-09-07T01:19:08;10.80;;;5.33;;
11747;SDS011;5931;48.832;9.072;2023-09-07T01:21:38;7.70;;;4.60;;
11747;SDS011;5931;48.832;9.072;2023-09-07T01:24:06;6.23;;;4.30;;
11747;SDS011;5931;48.832;9.072;2023-09-07T01:26:33;7.03;;;5.13;;
11747;SDS011;5931;48.832;9.072;2023-09-07T01:29:00;7.57;;;4.80;;
11747;SDS011;5931;48.832;9.072;2023-09-07T01:31:26;10.20;;;5.60;;
11747;SDS011;5931;48.832;9.072;2023-09-07T01:33:52;5.97;;;4.93;;
11747;SDS011;5931;48.832;9.072;2023-09-07T01:36:18;6.37;;;4.70;;
11747;SDS011;5931;48.832;9.072;2023-09-07T01:38:43;9.87;;;4.20;;
11747;SDS011;5931;48.832;9.072;2023-09-07T01:41:09;6.33;;;4.77;;
11747;SDS011;5931;48.832;9.072;2023-09-07T01:43:35;6.83;;;5.50;;
11747;SDS011;5931;48.832;9.072;2023-09-07T01:46:02;5.80;;;4.63;;
11747;SDS011;5931;48.832;9.072;2023-09-07T01:48:28;7.20;;;4.63;;
11747;SDS011;5931;48.832;9.072;2023-09-07T01:50:54;5.60;;;4.20;;
11747;SDS011;5931;48.832;9.072;2023-09-07T01:53:20;6.00;;;5.07;;
11747;SDS011;5931;48.832;9.072;2023-09-07T01:55:46;5.23;;;3.97;;
11747;SDS011;5931;48.832;9.072;2023-09-07T01:58:13;5.43;;;4.30;;
11747;SDS011;5931;48.832;9.072;2023-09-07T02:00:39;6.60;;;4.83;;
11747;SDS011;5931;48.832;9.072;2023-09-07T02:03:05;7.77;;;4.27;;
11747;SDS011;5931;48.832;9.072;2023-09-07T02:05:31;6.60;;;4.93;;
11747;SDS011;5931;48.832;9.072;2023-09-07T02:07:59;7.33;;;4.80;;
11747;SDS011;5931;48.832;9.072;2023-09-07T02:10:25;7.73;;;4.47;;
11747;SDS011;5931;48.832;9.072;2023-09-07T02:12:51;8.30;;;4.50;;
11747;SDS011;5931;48.832;9.072;2023-09-07T02:15:17;8.27;;;5.00;;
11747;SDS011;5931;48.832;9.072;2023-09-07T02:17:42;7.40;;;4.20;;
11747;SDS011;5931;48.832;9.072;2023-09-07T02:20:13;7.80;;;4.70;;
11747;SDS011;5931;48.832;9.072;2023-09-07T02:22:39;5.37;;;4.10;;
11747;SDS011;5931;48.832;9.072;2023-09-07T02:25:05;10.23;;;4.47;;
11747;SDS011;5931;48.832;9.072;2023-09-07T02:27:32;7.13;;;4.33;;
11747;SDS011;5931;48.832;9.072;2023-09-07T02:29:58;6.87;;;5.03;;
11747;SDS011;5931;48.832;9.072;2023-09-07T02:32:23;6.57;;;4.30;;
11747;SDS011;5931;48.832;9.072;2023-09-07T02:34:49;5.43;;;4.50;;
11747;SDS011;5931;48.832;9.072;2023-09-07T02:37:15;7.00;;;4.23;;
11747;SDS011;5931;48.832;9.072;2023-09-07T02:39:41;8.30;;;4.17;;
11747;SDS011;5931;48.832;9.072;2023-09-07T02:42:08;5.90;;;3.97;;
11747;SDS011;5931;48.832;9.072;2023-09-07T02:44:34;7.00;;;4.47;;
11747;SDS011;5931;48.832;9.072;2023-09-07T02:47:01;5.77;;;4.07;;
11747;SDS011;5931;48.832;9.072;2023-09-07T02:49:27;5.33;;;4.10;;
11747;SDS011;5931;48.832;9.072;2023-09-07T02:51:52;6.80;;;4.70;;
11747;SDS011;5931;48.832;9.072;2023-09-07T02:54:18;10.77;;;4.30;;
11747;SDS011;5931;48.832;9.072;2023-09-07T02:56:44;8.23;;;4.60;;
11747;SDS011;5931;48.832;9.072;2023-09-07T02:59:10;6.47;;;5.00;;
11747;SDS011;5931;48.832;9.072;2023-09-07T03:01:38;7.10;;;4.93;;
11747;SDS011;5931;48.832;9.072;2023-09-07T03:04:04;6.43;;;4.97;;
11747;SDS011;5931;48.832;9.072;2023-09-07T03:06:30;5.47;;;4.47;;
11747;SDS011;5931;48.832;9.072;2023-09-07T03:08:57;5.30;;;4.20;;
11747;SDS011;5931;48.832;9.072;2023-09-07T03:11:22;6.63;;;4.20;;
11747;SDS011;5931;48.832;9.072;2023-09-07T03:13:49;7.50;;;4.90;;
11747;SDS011;5931;48.832;9.072;2023-09-07T03:16:14;8.53;;;5.67;;
11747;SDS011;5931;48.832;9.072;2023-09-07T03:18:40;6.87;;;4.17;;
11747;SDS011;5931;48.832;9.072;2023-09-07T03:21:06;6.33;;;4.73;;
11747;SDS011;5931;48.832;9.072;2023-09-07T03:23:33;7.73;;;5.00;;
11747;SDS011;5931;48.832;9.072;2023-09-07T03:25:59;7.20;;;4.63;;
11747;SDS011;5931;48.832;9.072;2023-09-07T03:28:25;9.40;;;4.77;;
11747;SDS011;5931;48.832;9.072;2023-09-07T03:30:51;8.10;;;5.00;;
11747;SDS011;5931;48.832;9.072;2023-09-07T03:33:18;7.30;;;5.03;;
11747;SDS011;5931;48.832;9.072;2023-09-07T03:35:44;10.10;;;5.07;;
11747;SDS011;5931;48.832;9.072;2023-09-07T03:38:10;5.70;;;4.70;;
11747;SDS011;5931;48.832;9.072;2023-09-07T03:40:36;6.80;;;5.13;;
11747;SDS011;5931;48.832;9.072;2023-09-07T03:43:02;7.73;;;5.30;;
11747;SDS011;5931;48.832;9.072;2023-09-07T03:45:28;8.50;;;5.10;;
11747;SDS011;5931;48.832;9.072;2023-09-07T03:47:54;6.27;;;4.37;;
11747;SDS011;5931;48.832;9.072;2023-09-07T03:50:20;10.37;;;6.37;;
11747;SDS011;5931;48.832;9.072;2023-09-07T03:52:46;8.37;;;4.90;;
11747;SDS011;5931;48.832;9.072;2023-09-07T03:55:11;7.87;;;4.80;;
11747;SDS011;5931;48.832;9.072;2023-09-07T03:57:38;7.10;;;4.90;;
11747;SDS011;5931;48.832;9.072;2023-09-07T04:00:03;7.80;;;5.40;;
11747;SDS011;5931;48.832;9.072;2023-09-07T04:02:38;10.17;;;5.53;;
11747;SDS011;5931;48.832;9.072;2023-09-07T04:05:04;7.27;;;5.77;;
11747;SDS011;5931;48.832;9.072;2023-09-07T04:07:30;6.93;;;4.40;;
11747;SDS011;5931;48.832;9.072;2023-09-07T04:09:57;7.33;;;5.03;;
11747;SDS011;5931;48.832;9.072;2023-09-07T04:12:22;7.90;;;5.20;;
11747;SDS011;5931;48.832;9.072;2023-09-07T04:14:48;6.80;;;5.03;;
11747;SDS011;5931;48.832;9.072;2023-09-07T04:17:13;8.20;;;5.17;;
11747;SDS011;5931;48.832;9.072;2023-09-07T04:19:40;5.87;;;4.60;;
11747;SDS011;5931;48.832;9.072;2023-09-07T04:22:05;6.70;;;4.50;;
11747;SDS011;5931;48.832;9.072;2023-09-07T04:24:31;7.33;;;4.40;;
11747;SDS011;5931;48.832;9.072;2023-09-07T04:26:58;5.40;;;4.63;;
11747;SDS011;5931;48.832;9.072;2023-09-07T04:29:26;8.40;;;5.80;;
11747;SDS011;5931;48.832;9.072;2023-09-07T04:31:52;6.70;;;4.30;;
11747;SDS011;5931;48.832;9.072;2023-09-07T04:34:18;6.53;;;5.33;;
11747;SDS011;5931;48.832;9.072;2023-09-07T04:36:46;6.37;;;4.60;;
11747;SDS011;5931;48.832;9.072;2023-09-07T04:39:12;7.70;;;5.40;;
11747;SDS011;5931;48.832;9.072;2023-09-07T04:41:39;8.90;;;6.00;;
11747;SDS011;5931;48.832;9.072;2023-09-07T04:44:06;10.03;;;5.47;;
11747;SDS011;5931;48.832;9.072;2023-09-07T04:46:32;9.40;;;5.97;;
11747;SDS011;5931;48.832;9.072;2023-09-07T04:48:58;7.97;;;5.17;;
11747;SDS011;5931;48.832;9.072;2023-09-07T04:51:24;7.53;;;5.07;;
11747;SDS011;5931;48.832;9.072;2023-09-07T04:53:51;6.10;;;4.83;;
11747;SDS011;5931;48.832;9.072;2023-09-07T04:56:17;7.00;;;4.53;;
11747;SDS011;5931;48.832;9.072;2023-09-07T04:58:43;7.60;;;5.03;;
11747;SDS011;5931;48.832;9.072;2023-09-07T05:01:09;8.85;;;5.35;;
11747;SDS011;5931;48.832;9.072;2023-09-07T05:03:37;6.73;;;5.10;;
11747;SDS011;5931;48.832;9.072;2023-09-07T05:06:03;7.20;;;5.30;;
11747;SDS011;5931;48.832;9.072;2023-09-07T05:08:30;9.20;;;5.77;;
11747;SDS011;5931;48.832;9.072;2023-09-07T05:10:59;7.83;;;5.60;;
11747;SDS011;5931;48.832;9.072;2023-09-07T05:13:27;8.37;;;5.17;;
11747;SDS011;5931;48.832;9.072;2023-09-07T05:15:55;10.67;;;6.60;;
11747;SDS011;5931;48.832;9.072;2023-09-07T05:18:21;12.17;;;6.23;;
11747;SDS011;5931;48.832;9.072;2023-09-07T05:20:48;12.97;;;6.37;;
11747;SDS011;5931;48.832;9.072;2023-09-07T05:23:16;9.93;;;5.57;;
11747;SDS011;5931;48.832;9.072;2023-09-07T05:25:53;10.27;;;5.97;;
11747;SDS011;5931;48.832;9.072;2023-09-07T05:28:22;12.07;;;6.60;;
11747;SDS011;5931;48.832;9.072;2023-09-07T05:30:50;13.33;;;7.47;;
11747;SDS011;5931;48.832;9.072;2023-09-07T05:33:16;14.27;;;6.57;;
11747;SDS011;5931;48.832;9.072;2023-09-07T05:35:44;15.83;;;6.30;;
11747;SDS011;5931;48.832;9.072;2023-09-07T05:38:11;9.20;;;5.90;;
11747;SDS011;5931;48.832;9.072;2023-09-07T05:40:38;11.53;;;6.07;;
11747;SDS011;5931;48.832;9.072;2023-09-07T05:43:05;9.33;;;5.70;;
11747;SDS011;5931;48.832;9.072;2023-09-07T05:45:34;7.73;;;6.30;;
11747;SDS011;5931;48.832;9.072;2023-09-07T05:48:06;8.97;;;5.53;;
11747;SDS011;5931;48.832;9.072;2023-09-07T05:50:35;8.23;;;6.33;;
11747;SDS011;5931;48.832;9.072;2023-09-07T05:53:02;7.67;;;4.70;;
11747;SDS011;5931;48.832;9.072;2023-09-07T05:55:29;13.53;;;6.67;;
11747;SDS011;5931;48.832;9.072;2023-09-07T05:57:55;10.63;;;6.47;;
11747;SDS011;5931;48.832;9.072;2023-09-07T06:00:21;10.00;;;6.57;;
11747;SDS011;5931;48.832;9.072;2023-09-07T06:02:48;8.93;;;6.80;;
11747;SDS011;5931;48.832;9.072;2023-09-07T06:05:14;9.87;;;6.00;;
11747;SDS011;5931;48.832;9.072;2023-09-07T06:07:40;8.90;;;5.10;;
11747;SDS011;5931;48.832;9.072;2023-09-07T06:10:07;8.67;;;5.23;;
11747;SDS011;5931;48.832;9.072;2023-09-07T06:12:34;7.70;;;5.87;;
11747;SDS011;5931;48.832;9.072;2023-09-07T06:15:00;7.00;;;5.20;;
11747;SDS011;5931;48.832;9.072;2023-09-07T06:17:27;8.00;;;6.37;;
11747;SDS011;5931;48.832;9.072;2023-09-07T06:19:56;9.57;;;5.50;;
11747;SDS011;5931;48.832;9.072;2023-09-07T06:22:22;11.93;;;5.83;;
11747;SDS011;5931;48.832;9.072;2023-09-07T06:24:49;8.77;;;5.00;;
11747;SDS011;5931;48.832;9.072;2023-09-07T06:27:15;9.57;;;5.30;;
11747;SDS011;5931;48.832;9.072;2023-09-07T06:29:41;10.73;;;6.40;;
11747;SDS011;5931;48.832;9.072;2023-09-07T06:32:07;7.20;;;5.30;;
11747;SDS011;5931;48.832;9.072;2023-09-07T06:34:33;7.33;;;5.27;;
11747;SDS011;5931;48.832;9.072;2023-09-07T06:36:59;7.70;;;5.80;;
11747;SDS011;5931;48.832;9.072;2023-09-07T06:39:24;9.20;;;5.90;;
11747;SDS011;5931;48.832;9.072;2023-09-07T06:41:50;9.63;;;5.93;;
11747;SDS011;5931;48.832;9.072;2023-09-07T06:44:19;10.03;;;6.30;;
11747;SDS011;5931;48.832;9.072;2023-09-07T06:46:45;6.90;;;5.23;;
11747;SDS011;5931;48.832;9.072;2023-09-07T06:49:12;9.27;;;5.70;;
11747;SDS011;5931;48.832;9.072;2023-09-07T06:51:38;9.50;;;5.00;;
11747;SDS011;5931;48.832;9.072;2023-09-07T06:54:04;7.20;;;4.90;;
11747;SDS011;5931;48.832;9.072;2023-09-07T06:56:30;9.40;;;6.07;;
11747;SDS011;5931;48.832;9.072;2023-09-07T06:58:58;7.83;;;5.10;;
11747;SDS011;5931;48.832;9.072;2023-09-07T07:01:24;9.13;;;5.63;;
11747;SDS011;5931;48.832;9.072;2023-09-07T07:03:50;7.03;;;4.90;;
11747;SDS011;5931;48.832;9.072;2023-09-07T07:06:16;9.60;;;6.43;;
11747;SDS011;5931;48.832;9.072;2023-09-07T07:08:42;7.60;;;5.63;;
11747;SDS011;5931;48.832;9.072;2023-09-07T07:11:07;7.70;;;4.50;;
11747;SDS011;5931;48.832;9.072;2023-09-07T07:13:34;10.13;;;5.43;;
11747;SDS011;5931;48.832;9.072;2023-09-07T07:16:02;8.87;;;6.00;;
11747;SDS011;5931;48.832;9.072;2023-09-07T07:18:29;7.20;;;5.37;;
11747;SDS011;5931;48.832;9.072;2023-09-07T07:20:56;9.03;;;5.57;;
11747;SDS011;5931;48.832;9.072;2023-09-07T07:23:22;7.47;;;5.30;;
11747;SDS011;5931;48.832;9.072;2023-09-07T07:25:47;7.67;;;4.73;;
11747;SDS011;5931;48.832;9.072;2023-09-07T07:28:13;5.13;;;4.27;;
11747;SDS011;5931;48.832;9.072;2023-09-07T07:30:39;7.67;;;5.40;;
11747;SDS011;5931;48.832;9.072;2023-09-07T07:33:08;5.67;;;4.43;;
11747;SDS011;5931;48.832;9.072;2023-09-07T07:35:37;6.97;;;4.70;;
11747;SDS011;5931;48.832;9.072;2023-09-07T07:38:03;13.43;;;5.17;;
11747;SDS011;5931;48.832;9.072;2023-09-07T07:40:31;7.17;;;5.40;;
11747;SDS011;5931;48.832;9.072;2023-09-07T07:42:57;9.70;;;4.90;;
11747;SDS011;5931;48.832;9.072;2023-09-07T07:45:23;7.80;;;5.20;;
11747;SDS011;5931;48.832;9.072;2023-09-07T07:47:50;7.63;;;5.77;;
11747;SDS011;5931;48.832;9.072;2023-09-07T07:50:17;6.50;;;5.70;;
11747;SDS011;5931;48.832;9.072;2023-09-07T07:52:44;8.07;;;5.40;;
11747;SDS011;5931;48.832;9.072;2023-09-07T07:55:10;8.70;;;5.03;;
11747;SDS011;5931;48.832;9.072;2023-09-07T07:57:37;8.10;;;5.53;;
11747;SDS011;5931;48.832;9.072;2023-09-07T08:00:06;5.70;;;4.80;;
11747;SDS011;5931;48.832;9.072;2023-09-07T08:02:39;5.57;;;4.97;;
11747;SDS011;5931;48.832;9.072;2023-09-07T08:05:06;5.33;;;4.07;;
11747;SDS011;5931;48.832;9.072;2023-09-07T08:07:33;6.17;;;4.80;;
11747;SDS011;5931;48.832;9.072;2023-09-07T08:09:59;10.20;;;5.43;;
11747;SDS011;5931;48.832;9.072;2023-09-07T08:12:25;6.60;;;5.03;;
11747;SDS011;5931;48.832;9.072;2023-09-07T08:14:51;6.30;;;4.93;;
11747;SDS011;5931;48.832;9.072;2023-09-07T08:17:17;13.23;;;5.03;;
11747;SDS011;5931;48.832;9.072;2023-09-07T08:19:43;7.03;;;4.70;;
11747;SDS011;5931;48.832;9.072;2023-09-07T08:22:09;6.17;;;5.30;;
11747;SDS011;5931;48.832;9.072;2023-09-07T08:24:34;6.73;;;6.03;;
11747;SDS011;5931;48.832;9.072;2023-09-07T08:27:01;14.03;;;4.73;;
11747;SDS011;5931;48.832;9.072;2023-09-07T08:29:27;7.00;;;4.77;;
11747;SDS011;5931;48.832;9.072;2023-09-07T08:31:57;7.10;;;5.57;;
11747;SDS011;5931;48.832;9.072;2023-09-07T08:34:24;7.93;;;4.23;;
11747;SDS011;5931;48.832;9.072;2023-09-07T08:36:50;6.63;;;4.87;;
11747;SDS011;5931;48.832;9.072;2023-09-07T08:39:18;5.80;;;4.73;;
11747;SDS011;5931;48.832;9.072;2023-09-07T08:41:45;7.40;;;5.03;;
11747;SDS011;5931;48.832;9.072;2023-09-07T08:44:11;7.40;;;5.00;;
11747;SDS011;5931;48.832;9.072;2023-09-07T08:46:40;6.57;;;5.03;;
11747;SDS011;5931;48.832;9.072;2023-09-07T08:49:06;7.07;;;5.20;;
11747;SDS011;5931;48.832;9.072;2023-09-07T08:51:31;6.63;;;4.37;;
11747;SDS011;5931;48.832;9.072;2023-09-07T08:53:58;7.03;;;4.90;;
11747;SDS011;5931;48.832;9.072;2023-09-07T08:56:23;6.73;;;5.13;;
11747;SDS011;5931;48.832;9.072;2023-09-07T08:58:50;10.17;;;5.00;;
11747;SDS011;5931;48.832;9.072;2023-09-07T09:01:19;6.00;;;5.33;;
11747;SDS011;5931;48.832;9.072;2023-09-07T09:03:48;8.23;;;4.80;;
11747;SDS011;5931;48.832;9.072;2023-09-07T09:06:19;6.13;;;4.70;;
11747;SDS011;5931;48.832;9.072;2023-09-07T09:08:46;6.00;;;4.73;;
11747;SDS011;5931;48.832;9.072;2023-09-07T09:11:14;10.67;;;6.03;;
11747;SDS011;5931;48.832;9.072;2023-09-07T09:13:41;6.80;;;5.13;;
11747;SDS011;5931;48.832;9.072;2023-09-07T09:16:07;6.07;;;4.97;;
11747;SDS011;5931;48.832;9.072;2023-09-07T09:18:34;5.23;;;4.67;;
11747;SDS011;5931;48.832;9.072;2023-09-07T09:20:59;8.30;;;4.80;;
11747;SDS011;5931;48.832;9.072;2023-09-07T09:23:35;9.30;;;4.83;;
11747;SDS011;5931;48.832;9.072;2023-09-07T09:26:02;6.40;;;5.43;;
11747;SDS011;5931;48.832;9.072;2023-09-07T09:28:33;5.80;;;4.40;;
11747;SDS011;5931;48.832;9.072;2023-09-07T09:31:03;6.33;;;4.80;;
11747;SDS011;5931;48.832;9.072;2023-09-07T09:33:32;6.20;;;4.60;;
11747;SDS011;5931;48.832;9.072;2023-09-07T09:35:58;7.20;;;5.00;;
11747;SDS011;5931;48.832;9.072;2023-09-07T09:38:24;10.17;;;5.60;;
11747;SDS011;5931;48.832;9.072;2023-09-07T09:40:51;5.50;;;4.60;;
11747;SDS011;5931;48.832;9.072;2023-09-07T09:43:17;8.47;;;5.33;;
11747;SDS011;5931;48.832;9.072;2023-09-07T09:45:45;6.40;;;4.60;;
11747;SDS011;5931;48.832;9.072;2023-09-07T09:48:11;10.53;;;5.60;;
11747;SDS011;5931;48.832;9.072;2023-09-07T09:50:38;6.63;;;5.07;;
11747;SDS011;5931;48.832;9.072;2023-09-07T09:53:05;9.63;;;5.40;;
11747;SDS011;5931;48.832;9.072;2023-09-07T09:55:32;7.07;;;5.70;;
11747;SDS011;5931;48.832;9.072;2023-09-07T09:57:59;6.33;;;4.40;;
11747;SDS011;5931;48.832;9.072;2023-09-07T10:00:24;6.60;;;5.60;;
11747;SDS011;5931;48.832;9.072;2023-09-07T10:02:55;5.57;;;4.97;;
11747;SDS011;5931;48.832;9.072;2023-09-07T10:05:29;5.37;;;4.67;;
11747;SDS011;5931;48.832;9.072;2023-09-07T10:08:00;5.10;;;4.60;;
11747;SDS011;5931;48.832;9.072;2023-09-07T10:10:32;7.27;;;5.37;;
11747;SDS011;5931;48.832;9.072;2023-09-07T10:13:00;6.57;;;5.07;;
11747;SDS011;5931;48.832;9.072;2023-09-07T10:15:26;12.03;;;5.20;;
11747;SDS011;5931;48.832;9.072;2023-09-07T10:18:13;5.73;;;4.50;;
11747;SDS011;5931;48.832;9.072;2023-09-07T10:23:23;5.83;;;5.00;;
11747;SDS011;5931;48.832;9.072;2023-09-07T10:28:42;6.03;;;4.93;;
11747;SDS011;5931;48.832;9.072;2023-09-07T10:31:17;7.30;;;5.10;;
11747;SDS011;5931;48.832;9.072;2023-09-07T10:33:44;6.97;;;5.53;;
11747;SDS011;5931;48.832;9.072;2023-09-07T10:36:26;7.03;;;5.43;;
11747;SDS011;5931;48.832;9.072;2023-09-07T10:38:53;6.97;;;5.30;;
11747;SDS011;5931;48.832;9.072;2023-09-07T10:41:21;6.10;;;5.40;;
11747;SDS011;5931;48.832;9.072;2023-09-07T10:43:48;6.80;;;5.33;;
11747;SDS011;5931;48.832;9.072;2023-09-07T10:46:18;6.03;;;5.43;;
11747;SDS011;5931;48.832;9.072;2023-09-07T10:48:45;7.93;;;5.70;;
11747;SDS011;5931;48.832;9.072;2023-09-07T10:51:13;5.77;;;5.17;;
11747;SDS011;5931;48.832;9.072;2023-09-07T10:53:39;6.40;;;5.20;;
11747;SDS011;5931;48.832;9.072;2023-09-07T10:56:05;6.80;;;5.77;;
11747;SDS011;5931;48.832;9.072;2023-09-07T10:58:31;6.03;;;5.43;;
11747;SDS011;5931;48.832;9.072;2023-09-07T11:00:59;5.87;;;4.67;;
11747;SDS011;5931;48.832;9.072;2023-09-07T11:03:25;5.70;;;4.60;;
11747;SDS011;5931;48.832;9.072;2023-09-07T11:06:10;6.70;;;5.20;;
11747;SDS011;5931;48.832;9.072;2023-09-07T11:08:39;7.07;;;4.97;;
11747;SDS011;5931;48.832;9.072;2023-09-07T11:11:05;7.87;;;5.17;;
11747;SDS011;5931;48.832;9.072;2023-09-07T11:13:31;5.07;;;4.47;;
11747;SDS011;5931;48.832;9.072;2023-09-07T11:15:57;9.50;;;5.03;;
11747;SDS011;5931;48.832;9.072;2023-09-07T11:18:24;6.80;;;5.50;;
11747;SDS011;5931;48.832;9.072;2023-09-07T11:20:51;7.00;;;5.20;;
11747;SDS011;5931;48.832;9.072;2023-09-07T11:23:17;6.50;;;4.97;;
11747;SDS011;5931;48.832;9.072;2023-09-07T11:25:44;5.43;;;4.80;;
11747;SDS011;5931;48.832;9.072;2023-09-07T11:28:15;8.70;;;4.83;;
11747;SDS011;5931;48.832;9.072;2023-09-07T11:30:50;6.07;;;5.07;;
11747;SDS011;5931;48.832;9.072;2023-09-07T11:33:16;8.63;;;6.00;;
11747;SDS011;5931;48.832;9.072;2023-09-07T11:35:42;9.43;;;5.17;;
11747;SDS011;5931;48.832;9.072;2023-09-07T11:38:08;8.33;;;5.20;;
11747;SDS011;5931;48.832;9.072;2023-09-07T11:40:37;5.93;;;5.30;;
11747;SDS011;5931;48.832;9.072;2023-09-07T11:43:03;7.47;;;4.87;;
11747;SDS011;5931;48.832;9.072;2023-09-07T11:45:28;5.70;;;4.47;;
11747;SDS011;5931;48.832;9.072;2023-09-07T11:47:54;5.67;;;5.10;;
11747;SDS011;5931;48.832;9.072;2023-09-07T11:50:23;6.80;;;5.23;;
11747;SDS011;5931;48.832;9.072;2023-09-07T11:52:50;6.43;;;4.67;;
11747;SDS011;5931;48.832;9.072;2023-09-07T11:55:16;5.63;;;4.60;;
11747;SDS011;5931;48.832;9.072;2023-09-07T11:57:41;5.33;;;4.83;;
11747;SDS011;5931;48.832;9.072;2023-09-07T12:00:08;6.50;;;5.00;;
11747;SDS011;5931;48.832;9.072;2023-09-07T12:02:40;6.30;;;4.53;;
11747;SDS011;5931;48.832;9.072;2023-09-07T12:05:06;6.63;;;5.40;;
11747;SDS011;5931;48.832;9.072;2023-09-07T12:07:39;6.27;;;4.83;;
11747;SDS011;5931;48.832;9.072;2023-09-07T12:10:05;5.80;;;4.80;;
11747;SDS011;5931;48.832;9.072;2023-09-07T12:12:35;4.30;;;3.90;;
11747;SDS011;5931;48.832;9.072;2023-09-07T12:15:01;6.30;;;4.70;;
11747;SDS011;5931;48.832;9.072;2023-09-07T12:17:29;5.90;;;4.30;;
11747;SDS011;5931;48.832;9.072;2023-09-07T12:19:58;7.07;;;4.37;;
11747;SDS011;5931;48.832;9.072;2023-09-07T12:22:24;6.17;;;4.57;;
11747;SDS011;5931;48.832;9.072;2023-09-07T12:24:49;4.40;;;3.83;;
11747;SDS011;5931;48.832;9.072;2023-09-07T12:27:15;5.20;;;4.60;;
11747;SDS011;5931;48.832;9.072;2023-09-07T12:29:41;6.50;;;4.40;;
11747;SDS011;5931;48.832;9.072;2023-09-07T12:32:07;11.73;;;4.93;;
11747;SDS011;5931;48.832;9.072;2023-09-07T12:34:33;4.53;;;4.13;;
11747;SDS011;5931;48.832;9.072;2023-09-07T12:36:58;7.60;;;4.90;;
11747;SDS011;5931;48.832;9.072;2023-09-07T12:39:24;5.07;;;4.50;;
11747;SDS011;5931;48.832;9.072;2023-09-07T12:41:50;6.33;;;4.20;;
11747;SDS011;5931;48.832;9.072;2023-09-07T12:44:16;6.27;;;4.63;;
11747;SDS011;5931;48.832;9.072;2023-09-07T12:46:43;6.70;;;4.17;;
11747;SDS011;5931;48.832;9.072;2023-09-07T12:49:09;7.47;;;4.80;;
11747;SDS011;5931;48.832;9.072;2023-09-07T12:51:36;4.83;;;4.20;;
11747;SDS011;5931;48.832;9.072;2023-09-07T12:54:02;5.37;;;4.17;;
11747;SDS011;5931;48.832;9.072;2023-09-07T12:56:28;6.80;;;4.47;;
11747;SDS011;5931;48.832;9.072;2023-09-07T12:58:53;3.93;;;3.60;;
11747;SDS011;5931;48.832;9.072;2023-09-07T13:01:19;4.43;;;4.03;;
11747;SDS011;5931;48.832;9.072;2023-09-07T13:03:45;4.93;;;3.50;;
11747;SDS011;5931;48.832;9.072;2023-09-07T13:06:10;6.23;;;3.90;;
11747;SDS011;5931;48.832;9.072;2023-09-07T13:08:36;5.50;;;4.07;;
11747;SDS011;5931;48.832;9.072;2023-09-07T13:11:02;4.73;;;4.23;;
11747;SDS011;5931;48.832;9.072;2023-09-07T13:13:27;5.00;;;3.77;;
11747;SDS011;5931;48.832;9.072;2023-09-07T13:15:57;4.37;;;4.00;;
11747;SDS011;5931;48.832;9.072;2023-09-07T13:18:24;4.40;;;4.00;;
11747;SDS011;5931;48.832;9.072;2023-09-07T13:20:50;4.57;;;4.13;;
11747;SDS011;5931;48.832;9.072;2023-09-07T13:23:17;4.50;;;4.10;;
11747;SDS011;5931;48.832;9.072;2023-09-07T13:25:43;5.00;;;3.83;;
11747;SDS011;5931;48.832;9.072;2023-09-07T13:28:09;5.07;;;4.57;;
11747;SDS011;5931;48.832;9.072;2023-09-07T13:30:34;5.87;;;4.30;;
11747;SDS011;5931;48.832;9.072;2023-09-07T13:33:00;4.37;;;3.97;;
11747;SDS011;5931;48.832;9.072;2023-09-07T13:35:26;4.50;;;4.10;;
11747;SDS011;5931;48.832;9.072;2023-09-07T13:37:51;7.23;;;4.50;;
11747;SDS011;5931;48.832;9.072;2023-09-07T13:40:17;6.27;;;4.27;;
11747;SDS011;5931;48.832;9.072;2023-09-07T13:42:44;4.23;;;3.83;;
11747;SDS011;5931;48.832;9.072;2023-09-07T13:45:13;5.40;;;4.20;;
11747;SDS011;5931;48.832;9.072;2023-09-07T13:47:38;4.50;;;3.60;;
11747;SDS011;5931;48.832;9.072;2023-09-07T13:50:04;4.53;;;4.13;;
11747;SDS011;5931;48.832;9.072;2023-09-07T13:52:32;4.57;;;4.13;;
11747;SDS011;5931;48.832;9.072;2023-09-07T13:54:58;5.50;;;4.10;;
11747;SDS011;5931;48.832;9.072;2023-09-07T13:57:23;4.87;;;3.87;;
11747;SDS011;5931;48.832;9.072;2023-09-07T13:59:49;4.40;;;3.80;;
11747;SDS011;5931;48.832;9.072;2023-09-07T14:02:15;4.73;;;4.00;;
11747;SDS011;5931;48.832;9.072;2023-09-07T14:04:40;3.90;;;3.60;;
11747;SDS011;5931;48.832;9.072;2023-09-07T14:07:06;4.00;;;3.70;;
11747;SDS011;5931;48.832;9.072;2023-09-07T14:09:31;6.47;;;3.60;;
11747;SDS011;5931;48.832;9.072;2023-09-07T14:11:58;5.03;;;3.70;;
11747;SDS011;5931;48.832;9.072;2023-09-07T14:14:24;4.50;;;3.43;;
11747;SDS011;5931;48.832;9.072;2023-09-07T14:16:50;5.87;;;3.83;;
11747;SDS011;5931;48.832;9.072;2023-09-07T14:19:20;7.10;;;4.30;;
11747;SDS011;5931;48.832;9.072;2023-09-07T14:21:45;4.53;;;3.93;;
11747;SDS011;5931;48.832;9.072;2023-09-07T14:24:11;4.27;;;3.87;;
11747;SDS011;5931;48.832;9.072;2023-09-07T14:26:37;4.47;;;3.90;;
11747;SDS011;5931;48.832;9.072;2023-09-07T14:29:02;4.63;;;4.13;;
11747;SDS011;5931;48.832;9.072;2023-09-07T14:31:28;4.07;;;3.53;;
11747;SDS011;5931;48.832;9.072;2023-09-07T14:33:53;4.70;;;4.30;;
11747;SDS011;5931;48.832;9.072;2023-09-07T14:36:19;3.73;;;3.43;;
11747;SDS011;5931;48.832;9.072;2023-09-07T14:38:45;3.60;;;3.30;;
11747;SDS011;5931;48.832;9.072;2023-09-07T14:41:11;5.13;;;4.00;;
11747;SDS011;5931;48.832;9.072;2023-09-07T14:43:43;5.40;;;4.23;;
11747;SDS011;5931;48.832;9.072;2023-09-07T14:46:12;4.07;;;3.60;;
11747;SDS011;5931;48.832;9.072;2023-09-07T14:48:38;5.70;;;4.17;;
11747;SDS011;5931;48.832;9.072;2023-09-07T14:51:04;4.87;;;4.27;;
11747;SDS011;5931;48.832;9.072;2023-09-07T14:53:29;4.70;;;3.70;;
11747;SDS011;5931;48.832;9.072;2023-09-07T14:55:56;4.07;;;3.40;;
11747;SDS011;5931;48.832;9.072;2023-09-07T14:58:22;4.10;;;3.67;;
11747;SDS011;5931;48.832;9.072;2023-09-07T15:00:47;5.27;;;3.80;;
11747;SDS011;5931;48.832;9.072;2023-09-07T15:03:13;5.63;;;4.30;;